»·PEaware :: WAT169 KLAS-KRNO

WAT169 :: KLAS-KRNO

FLIGHT INFORMATION

Flight Status: Arrived
Operator:
Walker Air Transport
More flights by this operator :: More flights under this callsign
Pilot: Marty P. (27464)
Aircraft: BOEING 737-800
(B738)
More flights by this aircraft type
Origin: KLAS McCarran Intl
United States
Destination: KRNO Reno/Tahoe Intl
United States
More flights between these airports :: More routes between these airports
Route: +SHEAD1 KENNO RUSME KENNO2
File this flight plan on PilotEdge
Remarks: Hello again!
Altitude:
(Current/Filed)
30,000ft
Speed:
(Current/Filed)
480kts
Departed: 11-Nov-20 07:02 PM
Arrived: 11-Nov-20 07:57 PM
Distance/Time
Traveled:
300nm/0:55
Distance/Time
To Go:
Arrived

Flight Plot

Page will automatically refresh every two minutes.

Flight plan parsing failed; only flown route is shown


Map Options




Map Legend


Flown Route
Filed Route
Departure Airport
Arrival Airport
Navaid (VOR, NDB)
Fix

Horizontal Profiles

Position Reports

Time Latitude Longitude Heading Altitude Ground
Speed
11-Nov-20 18:35 36.080323 -115.147282 66 2099ft 0kts
11-Nov-20 18:36 36.080323 -115.147282 66 2099ft 0kts
11-Nov-20 18:37 36.080323 -115.147282 66 2099ft 0kts
11-Nov-20 18:38 36.080323 -115.147282 66 2099ft 0kts
11-Nov-20 18:39 36.080323 -115.147282 66 2099ft 0kts
11-Nov-20 18:40 36.080323 -115.147282 66 2099ft 0kts
11-Nov-20 18:41 36.080323 -115.147282 66 2099ft 0kts
11-Nov-20 18:42 36.080323 -115.147282 66 2099ft 0kts
11-Nov-20 18:43 36.080323 -115.147282 66 2099ft 0kts
11-Nov-20 18:44 36.080323 -115.147282 66 2099ft 0kts
11-Nov-20 18:45 36.080323 -115.147282 66 2099ft 0kts
11-Nov-20 18:46 36.080323 -115.147282 66 2099ft 0kts
11-Nov-20 18:47 36.080323 -115.147282 66 2099ft 0kts
11-Nov-20 18:48 36.080323 -115.147282 66 2099ft 0kts
11-Nov-20 18:49 36.080323 -115.147282 66 2099ft 0kts
11-Nov-20 18:50 36.080323 -115.147282 66 2099ft 0kts
11-Nov-20 18:51 36.080323 -115.147282 66 2099ft 0kts
11-Nov-20 18:52 36.080323 -115.147283 66 2099ft 0kts
11-Nov-20 18:53 36.080155 -115.147556 71 2100ft 2kts
11-Nov-20 18:54 36.080212 -115.148058 156 2102ft 1kts
11-Nov-20 18:55 36.080229 -115.148067 155 2102ft 0kts
11-Nov-20 18:56 36.080148 -115.148014 151 2102ft 1kts
11-Nov-20 18:57 36.078435 -115.145941 94 2098ft 15kts
11-Nov-20 18:58 36.078267 -115.138613 90 2076ft 24kts
11-Nov-20 18:59 36.078275 -115.129844 90 2051ft 24kts
11-Nov-20 19:00 36.077900 -115.122155 128 2039ft 14kts
11-Nov-20 19:01 36.076265 -115.129299 269 2053ft 112kts
11-Nov-20 19:02 36.076978 -115.188907 269 3940ft 200kts
11-Nov-20 19:03 36.053428 -115.260474 216 6751ft 250kts
11-Nov-20 19:04 35.987956 -115.294093 204 10667ft 265kts
11-Nov-20 19:05 35.926219 -115.351936 225 13068ft 321kts
11-Nov-20 19:06 35.888861 -115.459637 268 15707ft 352kts
11-Nov-20 19:07 35.893888 -115.580299 273 18879ft 356kts
11-Nov-20 19:08 35.898068 -115.703165 268 21467ft 364kts
11-Nov-20 19:09 35.896265 -115.834293 268 23113ft 389kts
11-Nov-20 19:10 35.913309 -115.965830 294 25180ft 406kts
11-Nov-20 19:11 35.989393 -116.074850 308 26880ft 428kts
11-Nov-20 19:12 36.076071 -116.177452 308 28575ft 433kts
11-Nov-20 19:13 36.163324 -116.278798 308 30063ft 437kts
11-Nov-20 19:14 36.255096 -116.385360 309 30063ft 465kts
11-Nov-20 19:15 36.351207 -116.496923 309 30063ft 479kts
11-Nov-20 19:16 36.448746 -116.610497 309 30065ft 484kts
11-Nov-20 19:17 36.548680 -116.724521 314 30065ft 492kts
11-Nov-20 19:18 36.663040 -116.820507 319 30073ft 499kts
11-Nov-20 19:19 36.780878 -116.911957 320 30072ft 500kts
11-Nov-20 19:20 36.899313 -117.002711 320 30068ft 502kts
11-Nov-20 19:21 37.018308 -117.093843 320 30065ft 502kts
11-Nov-20 19:22 37.128036 -117.177598 319 30061ft 420kts
11-Nov-20 19:23 37.223581 -117.251381 318 30074ft 387kts
11-Nov-20 19:24 37.310388 -117.325595 311 30103ft 373kts
11-Nov-20 19:25 37.390239 -117.408893 310 30092ft 374kts
11-Nov-20 19:26 37.469937 -117.493543 312 30079ft 381kts
11-Nov-20 19:27 37.563087 -117.573524 318 30085ft 429kts
11-Nov-20 19:28 37.666599 -117.656211 319 30091ft 457kts
11-Nov-20 19:29 37.774385 -117.741802 319 30071ft 458kts
11-Nov-20 19:30 37.882672 -117.827996 319 30049ft 458kts
11-Nov-20 19:31 37.990318 -117.913955 319 30070ft 457kts
11-Nov-20 19:32 38.097938 -118.000209 319 30134ft 456kts
11-Nov-20 19:33 38.205379 -118.086608 319 30137ft 456kts
11-Nov-20 19:34 38.313972 -118.174382 320 29145ft 477kts
11-Nov-20 19:35 38.421731 -118.270767 312 27929ft 462kts
11-Nov-20 19:36 38.514978 -118.381385 311 26725ft 454kts
11-Nov-20 19:37 38.604955 -118.491491 312 25527ft 445kts
11-Nov-20 19:38 38.693392 -118.600782 312 24318ft 437kts
11-Nov-20 19:39 38.780129 -118.708762 312 23364ft 435kts
11-Nov-20 19:40 38.864719 -118.814349 313 21355ft 419kts
11-Nov-20 19:41 38.946799 -118.916890 314 19030ft 399kts
11-Nov-20 19:42 39.024503 -119.014360 315 17147ft 382kts
11-Nov-20 19:43 39.099806 -119.109243 315 16922ft 381kts
11-Nov-20 19:44 39.174080 -119.203167 315 15998ft 347kts
11-Nov-20 19:45 39.242769 -119.290050 315 15267ft 332kts
11-Nov-20 19:46 39.303837 -119.367332 315 13280ft 291kts
11-Nov-20 19:47 39.359509 -119.435942 321 11930ft 258kts
11-Nov-20 19:48 39.415013 -119.487445 324 10399ft 234kts
11-Nov-20 19:49 39.463203 -119.532471 324 9996ft 202kts
11-Nov-20 19:50 39.509484 -119.575817 324 9659ft 210kts
11-Nov-20 19:51 39.554981 -119.618637 324 8355ft 196kts
11-Nov-20 19:52 39.597465 -119.659273 315 7533ft 192kts
11-Nov-20 19:53 39.610267 -119.721400 252 6528ft 174kts
11-Nov-20 19:54 39.581617 -119.764980 199 5876ft 165kts
11-Nov-20 19:55 39.537510 -119.769011 178 5065ft 169kts
11-Nov-20 19:57 39.498725 -119.769299 179 4425ft 28kts
11-Nov-20 19:58 39.498108 -119.771529 1 4425ft 11kts
11-Nov-20 19:59 39.503707 -119.772072 279 4425ft 14kts
11-Nov-20 20:00 39.504429 -119.774232 13 4425ft 0kts

Navigation Log

Ident Type
Flight plan parsing failed, navigation log unavailable